Date,TemperatureHighF,TemperatureAvgF,TemperatureLowF,DewpointHighF,DewpointAvgF,DewpointLowF,HumidityHigh,HumidityAvg,HumidityLow,PressureMaxIn,PressureMinIn,WindSpeedMaxMPH,WindSpeedAvgMPH,GustSpeedMaxMPH,PrecipitationSumIn
2013-8-1,86,71,59,72,66,59,97,83,53,30.04,29.81,20,2,24,0.66
2013-8-2,83,73,64,72,68,62,96,83,66,29.93,29.73,15,3,18,0.04
2013-8-3,77,68,61,66,62,59,93,82,64,30.12,29.94,11,2,13,0.00
2013-8-4,77,68,60,70,63,58,94,84,70,30.12,29.94,14,2,16,0.00
2013-8-5,86,76,69,76,72,67,94,87,71,29.98,29.75,14,2,16,0.00
2013-8-6,87,76,66,78,72,66,97,85,69,29.85,29.69,15,2,16,0.00
2013-8-7,84,72,63,71,66,61,96,81,52,29.92,29.75,11,1,11,0.00
2013-8-8,79,68,62,68,65,60,95,87,67,29.96,29.88,5,0,6,0.00
2013-8-9,80,71,59,71,65,59,97,83,56,30.09,29.96,11,1,12,0.00
2013-8-10,83,69,53,68,62,53,97,79,58,30.15,30.00,14,2,15,0.00
2013-8-11,85,73,61,72,66,60,94,81,62,30.06,29.90,15,3,16,0.03
2013-8-12,84,73,63,72,67,62,96,83,52,30.01,29.92,12,2,14,0.03
2013-8-13,79,68,58,64,61,56,95,79,49,30.11,30.01,9,1,10,0.00
2013-8-14,75,65,53,65,60,53,96,83,60,30.14,30.00,9,1,11,0.06
2013-8-15,69,65,63,65,62,60,95,89,76,30.05,29.96,10,2,12,0.52
2013-8-16,74,66,60,64,61,60,95,84,66,30.12,30.04,10,1,12,0.00
2013-8-17,79,69,60,62,60,56,91,75,53,30.14,30.03,14,2,15,0.00
2013-8-18,80,66,52,66,60,52,97,79,56,30.11,29.97,16,2,16,0.00
2013-8-19,85,74,63,71,67,61,93,79,62,30.01,29.83,17,4,20,0.00
2013-8-20,88,78,68,73,70,66,91,77,60,29.88,29.80,20,5,21,0.00
2013-8-21,91,79,68,75,70,66,92,75,57,29.91,29.82,15,4,17,0.00
2013-8-22,85,76,68,73,69,66,93,81,63,30.01,29.86,14,2,15,0.03
2013-8-23,90,79,69,74,70,68,95,76,53,29.99,29.86,19,2,19,0.00
2013-8-24,93,83,74,75,71,68,84,69,53,29.95,29.86,20,5,26,0.00
2013-8-25,94,83,73,74,72,69,87,70,49,30.01,29.91,20,6,21,0.00
2013-8-26,94,83,73,74,71,69,88,68,49,29.97,29.84,18,6,20,0.00
2013-8-27,95,82,72,72,69,65,84,66,45,29.86,29.77,17,6,20,0.00
2013-8-28,94,79,64,72,67,62,92,69,43,29.91,29.82,13,2,15,0.00
2013-8-29,97,79,63,75,70,64,96,75,45,29.91,29.79,15,2,20,0.00
2013-8-30,101,80,66,79,72,66,95,76,39,29.83,29.73,11,1,13,0.00
2013-8-31,96,79,70,76,71,68,95,78,42,29.82,29.66,12,1,16,0.00